| time (UTC) | temp F | wind direction | speed MPH | gust MPH | rain 1hr in | rain 24hr in | rain mn in | humidity % | barometer mb |
| 20260506014612 | 59 | 65 | 5.0 | 15.0 | 0.00 | 0.00 | 0.00 | 79 | 1010.1 |
| 20260506013059 | 59 | 39 | 3.0 | 17.0 | 0.00 | 0.00 | 0.00 | 79 | 1009.8 |
| 20260506011557 | 60 | 344 | 4.0 | 16.0 | 0.00 | 0.00 | 0.00 | 78 | 1009.8 |
| 20260506010103 | 60 | 1 | 6.0 | 15.0 | 0.00 | 0.00 | 0.00 | 78 | 1009.6 |
| 20260506004604 | 60 | 112 | 4.0 | 13.0 | 0.00 | 0.00 | 0.00 | 77 | 1009.4 |
| 20260506003117 | 61 | 325 | 6.0 | 15.0 | 0.00 | 0.00 | 0.00 | 75 | 1009.2 |
| 20260506001623 | 61 | 263 | 4.0 | 14.0 | 0.00 | 0.00 | 0.00 | 75 | 1009.0 |
| 20260506000110 | 61 | 339 | 3.0 | 15.0 | 0.00 | 0.00 | 0.00 | 75 | 1008.7 |
| 20260505234613 | 61 | 324 | 6.0 | 23.0 | 0.00 | 0.00 | 0.00 | 75 | 1008.4 |
| 20260505233055 | 61 | 349 | 7.0 | 24.0 | 0.00 | 0.00 | 0.00 | 75 | 1008.1 |
| 20260505231556 | 61 | 307 | 6.0 | 17.0 | 0.00 | 0.00 | 0.00 | 76 | 1008.0 |
| 20260505230057 | 61 | 150 | 7.0 | 20.0 | 0.00 | 0.00 | 0.00 | 75 | 1007.9 |
| 20260505224600 | 62 | 301 | 7.0 | 17.0 | 0.00 | 0.00 | 0.00 | 74 | 1007.8 |
| 20260505223107 | 62 | 333 | 9.0 | 20.0 | 0.00 | 0.00 | 0.00 | 75 | 1007.6 |
| 20260505221603 | 62 | 337 | 7.0 | 15.0 | 0.00 | 0.00 | 0.00 | 73 | 1007.5 |
| 20260505220100 | 63 | 6 | 6.0 | 20.0 | 0.00 | 0.00 | 0.00 | 71 | 1007.4 |
| 20260505214603 | 64 | 27 | 4.0 | 15.0 | 0.00 | 0.00 | 0.00 | 72 | 1007.5 |
| 20260505213104 | 63 | 345 | 6.0 | 17.0 | 0.00 | 0.00 | 0.00 | 72 | 1007.3 |
| 20260505211629 | 64 | 301 | 6.0 | 16.0 | 0.00 | 0.00 | 0.00 | 71 | 1007.2 |
| 20260505210059 | 63 | 158 | 7.0 | 17.0 | 0.00 | 0.00 | 0.00 | 72 | 1007.3 |
| 20260505204600 | 63 | 292 | 6.0 | 22.0 | 0.00 | 0.00 | 0.00 | 72 | 1007.3 |
| 20260505203126 | 63 | 53 | 5.0 | 16.0 | 0.00 | 0.00 | 0.00 | 72 | 1007.5 |
| 20260505201600 | 64 | 308 | 5.0 | 15.0 | 0.00 | 0.00 | 0.00 | 73 | 1007.6 |
| 20260505200057 | 63 | 144 | 5.0 | 16.0 | 0.00 | 0.00 | 0.00 | 73 | 1007.7 |
| 20260505194602 | 64 | 341 | 4.0 | 13.0 | 0.00 | 0.00 | 0.00 | 71 | 1007.8 |
| 20260505193102 | 65 | 350 | 4.0 | 14.0 | 0.00 | 0.00 | 0.00 | 71 | 1008.2 |
| 20260505191558 | 66 | 330 | 3.0 | 11.0 | 0.00 | 0.00 | 0.00 | 71 | 1008.5 |
| 20260505190058 | 64 | 144 | 6.0 | 16.0 | 0.00 | 0.00 | 0.00 | 72 | 1008.9 |
| 20260505184600 | 65 | 66 | 3.0 | 13.0 | 0.00 | 0.00 | 0.00 | 72 | 1009.0 |
| 20260505183104 | 64 | 45 | 6.0 | 15.0 | 0.00 | 0.00 | 0.00 | 72 | 1009.1 |
| 20260505181559 | 65 | 25 | 5.0 | 10.0 | 0.00 | 0.00 | 0.00 | 70 | 1009.1 |
| 20260505180114 | 64 | 164 | 3.0 | 13.0 | 0.00 | 0.00 | 0.00 | 72 | 1009.3 |
| 20260505174600 | 64 | 341 | 7.0 | 18.0 | 0.00 | 0.00 | 0.00 | 72 | 1009.3 |
| 20260505173057 | 64 | 58 | 4.0 | 11.0 | 0.00 | 0.00 | 0.00 | 73 | 1009.3 |
| 20260505171559 | 65 | 13 | 3.0 | 10.0 | 0.00 | 0.00 | 0.00 | 73 | 1009.5 |
| 20260505170058 | 64 | 334 | 3.0 | 10.0 | 0.00 | 0.00 | 0.00 | 74 | 1009.6 |
| 20260505164602 | 64 | 354 | 5.0 | 11.0 | 0.00 | 0.00 | 0.00 | 73 | 1009.7 |
| 20260505163056 | 66 | 319 | 4.0 | 9.0 | 0.00 | 0.00 | 0.00 | 70 | 1009.6 |
| 20260505161556 | 66 | 314 | 3.0 | 11.0 | 0.00 | 0.00 | 0.00 | 71 | 1009.9 |
| 20260505153059 | 65 | 72 | 3.0 | 6.0 | 0.00 | 0.00 | 0.00 | 73 | 1009.8 |
| 20260505151557 | 64 | 28 | 4.0 | 10.0 | 0.00 | 0.00 | 0.00 | 73 | 1010.2 |
| 20260505140116 | 64 | 339 | 2.0 | 9.0 | 0.00 | 0.00 | 0.00 | 75 | 1010.0 |
| 20260505124601 | 60 | 8 | 3.0 | 7.0 | 0.00 | 0.00 | 0.00 | 80 | 1009.6 |
| 20260505123058 | 59 | 305 | 2.0 | 5.0 | 0.00 | 0.00 | 0.00 | 82 | 1009.7 |
| 20260505121557 | 58 | 300 | 0.0 | 4.0 | 0.00 | 0.00 | 0.00 | 84 | 1009.7 |
| 20260505120112 | 58 | 262 | 2.0 | 5.0 | 0.00 | 0.00 | 0.00 | 85 | 1009.9 |
| 20260505114559 | 56 | 263 | 1.0 | 3.0 | 0.00 | 0.00 | 0.00 | 87 | 1009.9 |
| 20260505113104 | 56 | 47 | 0.0 | 3.0 | 0.00 | 0.00 | 0.00 | 87 | 1009.9 |
| 20260505111600 | 56 | 123 | 0.0 | 3.0 | 0.00 | 0.00 | 0.00 | 89 | 1009.9 |
| 20260505101606 | 53 | 0 | 1.0 | 5.0 | 0.00 | 0.00 | 0.00 | 93 | 1009.1 |
| 20260505100100 | 52 | 315 | 1.0 | 4.0 | 0.00 | 0.00 | 0.00 | 93 | 1009.0 |
| 20260505094607 | 52 | 252 | 0.0 | 3.0 | 0.00 | 0.00 | 0.00 | 92 | 1008.9 |
| 20260505093058 | 52 | 284 | 0.0 | 2.0 | 0.00 | 0.00 | 0.00 | 92 | 1009.0 |
| 20260505091616 | 52 | 0 | 0.0 | 2.0 | 0.00 | 0.00 | 0.00 | 92 | 1009.0 |
| 20260505084606 | 53 | 142 | 0.0 | 4.0 | 0.00 | 0.00 | 0.00 | 91 | 1009.0 |
| 20260505083107 | 53 | 160 | 1.0 | 6.0 | 0.00 | 0.00 | 0.00 | 91 | 1009.1 |
| 20260505081558 | 53 | 326 | 0.0 | 6.0 | 0.00 | 0.00 | 0.00 | 91 | 1009.1 |
| 20260505080058 | 53 | 292 | 3.0 | 7.0 | 0.00 | 0.00 | 0.00 | 90 | 1009.1 |
| 20260505074559 | 53 | 22 | 2.0 | 5.0 | 0.00 | 0.00 | 0.00 | 90 | 1009.1 |
| 20260505073104 | 53 | 331 | 2.0 | 10.0 | 0.00 | 0.00 | 0.00 | 90 | 1009.1 |
| 20260505071600 | 53 | 222 | 2.0 | 4.0 | 0.00 | 0.00 | 0.00 | 90 | 1009.2 |
| 20260505070106 | 53 | 0 | 3.0 | 7.0 | 0.00 | 0.00 | 0.00 | 89 | 1009.1 |
| 20260505064600 | 53 | 0 | 1.0 | 6.0 | 0.00 | 0.00 | 0.00 | 89 | 1009.2 |
| 20260505063100 | 53 | 236 | 2.0 | 7.0 | 0.00 | 0.00 | 0.00 | 89 | 1009.1 |
| 20260505061627 | 53 | 351 | 2.0 | 8.0 | 0.00 | 0.00 | 0.00 | 89 | 1009.2 |
| 20260505054600 | 54 | 38 | 2.0 | 6.0 | 0.00 | 0.00 | 0.00 | 89 | 1009.3 |
| 20260505053059 | 54 | 34 | 2.0 | 10.0 | 0.00 | 0.00 | 0.00 | 88 | 1009.5 |
| 20260505051558 | 54 | 162 | 1.0 | 6.0 | 0.00 | 0.00 | 0.00 | 88 | 1009.7 |
| 20260505041606 | 54 | 290 | 0.0 | 8.0 | 0.00 | 0.00 | 0.00 | 85 | 1009.9 |
| 20260505040104 | 54 | 316 | 2.0 | 6.0 | 0.00 | 0.00 | 0.00 | 85 | 1010.0 |
| 20260505034614 | 55 | 296 | 2.0 | 6.0 | 0.00 | 0.00 | 0.00 | 85 | 1010.1 |
| 20260505033105 | 55 | 242 | 1.0 | 7.0 | 0.00 | 0.00 | 0.00 | 84 | 1010.0 |
| 20260505031605 | 55 | 172 | 0.0 | 7.0 | 0.00 | 0.00 | 0.00 | 83 | 1010.1 |
| 20260505024558 | 55 | 0 | 2.0 | 7.0 | 0.00 | 0.00 | 0.00 | 84 | 1010.2 |
| 20260505023058 | 55 | 214 | 1.0 | 5.0 | 0.00 | 0.00 | 0.00 | 84 | 1010.1 |
| 20260505021602 | 55 | 100 | 1.0 | 5.0 | 0.00 | 0.00 | 0.00 | 84 | 1010.2 |
| 20260505020057 | 55 | 285 | 2.0 | 8.0 | 0.00 | 0.00 | 0.00 | 84 | 1010.2 |